Time;durP1;ratioP1;P1;durP2;ratioP2;P2;SDS_P1;SDS_P2;PMS_P1;PMS_P2;Temp;Humidity;BMP_temperature;BMP_pressure;BME280_temperature;BME280_humidity;BME280_pressure;Samples;Min_cycle;Max_cycle;Signal;HPM_P1;HPM_P2
2022/11/17 00:01:16;;;;;;;7.77;2.07;;;10.50;99.90;;;;;;5031780;28;20557;-61
2022/11/17 00:03:44;;;;;;;4.57;1.40;;;10.50;99.90;;;;;;5031775;28;20226;-60
2022/11/17 00:06:11;;;;;;;4.73;1.87;;;10.50;99.90;;;;;;5031404;28;20205;-61
2022/11/17 00:08:38;;;;;;;2.20;1.23;;;10.40;99.90;;;;;;5031894;28;20256;-60
2022/11/17 00:11:05;;;;;;;7.47;1.67;;;10.40;99.90;;;;;;5031797;28;20256;-61
2022/11/17 00:16:18;;;;;;;8.50;1.63;;;10.40;99.90;;;;;;5031609;28;20221;-61
2022/11/17 00:21:32;;;;;;;11.57;1.73;;;10.40;99.90;;;;;;5031841;28;20231;-61
2022/11/17 00:23:58;;;;;;;1.83;1.27;;;10.30;99.90;;;;;;5031408;28;20705;-61
2022/11/17 00:26:26;;;;;;;5.23;1.70;;;10.30;99.90;;;;;;5031529;28;20260;-61
2022/11/17 00:28:54;;;;;;;3.80;1.50;;;10.30;99.90;;;;;;5032871;28;20209;-61
2022/11/17 00:34:08;;;;;;;3.27;1.43;;;10.20;99.90;;;;;;5035777;28;20217;-61
2022/11/17 00:36:37;;;;;;;9.27;1.53;;;10.10;99.90;;;;;;5035461;28;20209;-61
2022/11/17 00:39:05;;;;;;;6.07;2.13;;;10.10;99.90;;;;;;5035613;28;20226;-60
2022/11/17 00:41:32;;;;;;;9.40;1.90;;;10.10;99.90;;;;;;5035415;28;20288;-61
2022/11/17 00:43:58;;;;;;;5.43;1.97;;;10.10;99.90;;;;;;5035071;28;20272;-60
2022/11/17 00:46:25;;;;;;;6.70;1.70;;;10.10;99.90;;;;;;5035129;28;20203;-61
2022/11/17 00:48:52;;;;;;;2.20;1.63;;;10.10;99.90;;;;;;5035425;28;20210;-61
2022/11/17 00:51:20;;;;;;;4.00;1.60;;;10.00;99.90;;;;;;5035456;28;20599;-60
2022/11/17 00:53:48;;;;;;;3.50;1.40;;;10.00;99.90;;;;;;5035221;28;20601;-61
2022/11/17 00:56:14;;;;;;;2.60;1.17;;;10.10;99.90;;;;;;5035103;28;20210;-61
2022/11/17 00:58:41;;;;;;;2.43;1.60;;;10.10;99.90;;;;;;5034829;28;20283;-61
2022/11/17 01:01:08;;;;;;;4.40;1.27;;;10.10;99.90;;;;;;5035087;28;20739;-61
2022/11/17 01:03:35;;;;;;;4.90;1.40;;;10.10;99.90;;;;;;5034896;28;20790;-60
2022/11/17 01:06:07;;;;;;;2.40;1.20;;;10.10;99.90;;;;;;5034959;28;20291;-60
2022/11/17 01:08:35;;;;;;;3.60;1.20;;;10.10;99.90;;;;;;5034968;28;20199;-61
2022/11/17 01:11:07;;;;;;;1.60;1.37;;;10.10;99.90;;;;;;5034986;28;20268;-60
2022/11/17 01:13:34;;;;;;;4.03;1.50;;;10.10;99.90;;;;;;5034935;28;20244;-60
2022/11/17 01:16:05;;;;;;;2.30;1.20;;;10.20;99.90;;;;;;5034826;28;20206;-61
2022/11/17 01:18:32;;;;;;;1.43;1.17;;;10.20;99.90;;;;;;5034841;28;20230;-61
2022/11/17 01:21:04;;;;;;;6.00;1.50;;;10.20;99.90;;;;;;5034820;28;20268;-61
2022/11/17 01:23:33;;;;;;;2.67;1.50;;;10.20;99.90;;;;;;5034654;28;20297;-59
2022/11/17 01:26:07;;;;;;;5.53;1.57;;;10.10;99.90;;;;;;5034995;28;20237;-58
2022/11/17 01:28:34;;;;;;;5.30;1.53;;;10.10;99.90;;;;;;5034753;28;20236;-59
2022/11/17 01:31:03;;;;;;;3.90;1.40;;;10.10;99.90;;;;;;5034672;28;20221;-61
2022/11/17 01:33:30;;;;;;;3.43;1.47;;;10.00;99.90;;;;;;5034649;28;20268;-59
2022/11/17 01:36:00;;;;;;;2.93;1.47;;;10.00;99.90;;;;;;5034160;28;20202;-61
2022/11/17 01:38:27;;;;;;;2.47;1.57;;;10.00;99.90;;;;;;5034300;28;20229;-61
2022/11/17 01:40:54;;;;;;;5.63;1.83;;;10.00;99.90;;;;;;5034284;28;20303;-60
2022/11/17 01:46:30;;;;;;;4.00;1.50;;;10.00;99.90;;;;;;5089086;28;20552;-58
2022/11/17 01:49:02;;;;;;;5.00;1.50;;;10.00;99.90;;;;;;5089338;28;20207;-58
2022/11/17 01:51:31;;;;;;;4.40;1.50;;;10.00;99.90;;;;;;5089463;28;20216;-59
2022/11/17 01:53:59;;;;;;;4.33;1.60;;;10.00;99.90;;;;;;5089280;28;20231;-58
2022/11/17 01:56:29;;;;;;;5.30;2.17;;;9.90;99.90;;;;;;5088853;28;20208;-59
2022/11/17 01:59:01;;;;;;;4.03;1.80;;;9.90;99.90;;;;;;5089124;28;20208;-59
2022/11/17 02:01:29;;;;;;;1.93;1.60;;;9.90;99.90;;;;;;5089405;28;20211;-58
2022/11/17 02:03:56;;;;;;;5.90;1.77;;;9.90;99.90;;;;;;5089054;28;20300;-59
2022/11/17 02:06:27;;;;;;;3.17;1.47;;;9.90;99.90;;;;;;5088922;28;20564;-58
2022/11/17 02:08:56;;;;;;;3.27;1.53;;;9.90;99.90;;;;;;5089016;28;20624;-59
2022/11/17 02:11:23;;;;;;;4.57;1.80;;;9.90;99.90;;;;;;5089183;28;20214;-57
2022/11/17 02:13:54;;;;;;;5.00;1.47;;;9.90;99.90;;;;;;5088834;28;20821;-59
2022/11/17 02:16:21;;;;;;;2.43;1.53;;;9.90;99.90;;;;;;5088910;28;20283;-59
2022/11/17 02:18:49;;;;;;;2.83;2.47;;;9.90;99.90;;;;;;5089120;28;20261;-58
2022/11/17 02:22:04;;;;;;;5.00;1.40;;;9.90;99.90;;;;;;5088855;28;20623;-59
2022/11/17 02:24:59;;;;;;;4.10;1.80;;;9.90;99.90;;;;;;5026394;28;20236;-59
2022/11/17 02:27:55;;;;;;;8.77;1.77;;;9.90;99.90;;;;;;5023538;28;20206;-59
2022/11/17 02:30:23;;;;;;;2.10;1.17;;;9.90;99.90;;;;;;5062549;28;20212;-59
2022/11/17 02:33:00;;;;;;;5.70;1.77;;;9.80;99.90;;;;;;5088776;28;20224;-59
2022/11/17 02:35:35;;;;;;;2.67;1.87;;;9.80;99.90;;;;;;5088714;28;20291;-59
2022/11/17 02:38:08;;;;;;;4.33;1.47;;;9.80;99.90;;;;;;5088450;28;20211;-59
2022/11/17 02:40:40;;;;;;;3.33;1.60;;;9.80;99.90;;;;;;5088563;28;20208;-59
2022/11/17 02:46:02;;;;;;;3.97;1.80;;;9.80;99.90;;;;;;5088041;28;20304;-59
2022/11/17 02:48:32;;;;;;;1.80;1.13;;;9.80;99.90;;;;;;5088561;28;20208;-59
2022/11/17 02:51:00;;;;;;;2.33;1.40;;;9.80;99.90;;;;;;5088188;28;20213;-59
2022/11/17 02:53:28;;;;;;;5.13;1.50;;;9.80;99.90;;;;;;5088454;28;20746;-59
2022/11/17 02:55:58;;;;;;;3.70;1.53;;;9.80;99.90;;;;;;5083927;28;20205;-59
2022/11/17 02:58:26;;;;;;;1.93;1.30;;;9.80;99.90;;;;;;5074787;28;20216;-59
2022/11/17 03:01:19;;;;;;;2.07;1.27;;;9.70;99.90;;;;;;5074590;28;20220;-59
2022/11/17 03:04:02;;;;;;;1.70;1.30;;;9.70;99.90;;;;;;5074554;28;20229;-58
2022/11/17 03:06:38;;;;;;;2.37;1.20;;;9.80;99.90;;;;;;5074285;28;20219;-59
2022/11/17 03:09:13;;;;;;;2.03;1.40;;;9.80;99.90;;;;;;5074778;28;20302;-59
2022/11/17 03:11:44;;;;;;;1.33;1.00;;;9.80;99.90;;;;;;5074649;28;20205;-59
2022/11/17 03:14:20;;;;;;;3.27;1.10;;;9.80;99.90;;;;;;5074420;28;20711;-59
2022/11/17 03:16:53;;;;;;;1.43;1.23;;;9.80;99.90;;;;;;5074583;28;20208;-58
2022/11/17 03:19:28;;;;;;;3.47;1.10;;;9.80;99.90;;;;;;5074685;28;20356;-59
2022/11/17 03:22:05;;;;;;;2.23;1.30;;;9.80;99.90;;;;;;5074382;28;20262;-59
2022/11/17 03:24:36;;;;;;;3.03;1.17;;;9.80;99.90;;;;;;5073965;28;20282;-59
2022/11/17 03:27:09;;;;;;;2.60;1.00;;;9.80;99.90;;;;;;5074207;28;20263;-59
2022/11/17 03:29:41;;;;;;;1.43;0.90;;;9.80;99.90;;;;;;5074028;28;20626;-59
2022/11/17 03:32:09;;;;;;;2.60;1.00;;;9.80;99.90;;;;;;5074101;28;20215;-59
2022/11/17 03:34:40;;;;;;;1.90;0.93;;;9.80;99.90;;;;;;5073710;28;20221;-59
2022/11/17 03:37:10;;;;;;;1.93;1.00;;;9.80;99.90;;;;;;5073766;28;20207;-59
2022/11/17 03:39:38;;;;;;;1.53;1.00;;;9.70;99.90;;;;;;5074107;28;20209;-57
2022/11/17 03:42:10;;;;;;;2.53;1.20;;;9.70;99.90;;;;;;5073881;28;20284;-59
2022/11/17 03:44:41;;;;;;;1.40;1.20;;;9.70;99.90;;;;;;5073668;28;20293;-58
2022/11/17 03:47:09;;;;;;;1.63;1.03;;;9.70;99.90;;;;;;5073559;28;20208;-59
2022/11/17 03:49:40;;;;;;;1.67;0.90;;;9.70;99.90;;;;;;5073587;28;20204;-59
2022/11/17 03:52:07;;;;;;;2.20;1.00;;;9.70;99.90;;;;;;5073750;28;20207;-59
2022/11/17 03:54:35;;;;;;;3.73;1.27;;;9.70;99.90;;;;;;5073606;28;20224;-59
2022/11/17 03:57:07;;;;;;;1.37;0.97;;;9.70;99.90;;;;;;5073394;28;20261;-59
2022/11/17 03:59:41;;;;;;;3.00;1.03;;;9.70;99.90;;;;;;5073553;28;20208;-59
2022/11/17 04:02:09;;;;;;;1.90;1.00;;;9.70;99.90;;;;;;5073285;28;20200;-59
2022/11/17 04:07:16;;;;;;;1.57;1.27;;;9.70;99.90;;;;;;5072306;28;20297;-59
2022/11/17 04:09:42;;;;;;;2.50;1.07;;;9.70;99.90;;;;;;5072822;28;20208;-59
2022/11/17 04:17:38;;;;;;;2.60;1.20;;;9.70;99.90;;;;;;5072920;28;20208;-59
2022/11/17 04:20:06;;;;;;;2.70;1.17;;;9.70;99.90;;;;;;5073005;28;20250;-58
2022/11/17 04:22:33;;;;;;;1.33;1.00;;;9.70;99.90;;;;;;5072987;28;20212;-59
2022/11/17 04:25:00;;;;;;;1.10;0.60;;;9.70;99.90;;;;;;5072853;28;20228;-59
2022/11/17 04:30:13;;;;;;;4.67;1.03;;;9.70;99.90;;;;;;5072825;28;20207;-59
2022/11/17 04:32:39;;;;;;;1.77;1.10;;;9.70;99.90;;;;;;5072749;28;20232;-59
2022/11/17 04:35:06;;;;;;;4.63;1.20;;;9.80;99.90;;;;;;5072763;28;20208;-59
2022/11/17 04:37:33;;;;;;;3.17;1.30;;;9.80;99.90;;;;;;5072326;28;20217;-59
2022/11/17 04:40:00;;;;;;;3.83;1.20;;;9.80;99.90;;;;;;5072742;28;20701;-60
2022/11/17 04:42:26;;;;;;;1.33;0.90;;;9.80;99.90;;;;;;5072438;28;20602;-59
2022/11/17 04:44:52;;;;;;;1.50;1.13;;;9.80;99.90;;;;;;5072476;28;20258;-60
2022/11/17 04:47:20;;;;;;;3.83;1.00;;;9.80;99.90;;;;;;5072294;28;20628;-60
2022/11/17 04:49:47;;;;;;;2.30;1.27;;;9.80;99.90;;;;;;5072350;28;20204;-60
2022/11/17 04:52:14;;;;;;;2.03;1.00;;;9.80;99.90;;;;;;5072188;28;20208;-59
2022/11/17 04:54:40;;;;;;;2.60;1.10;;;9.80;99.90;;;;;;5072740;28;20204;-59
2022/11/17 04:57:07;;;;;;;2.37;1.00;;;9.80;99.90;;;;;;5072300;28;20204;-59
2022/11/17 04:59:33;;;;;;;2.77;1.07;;;9.90;99.90;;;;;;5072462;28;20618;-60
2022/11/17 05:02:00;;;;;;;1.67;1.10;;;9.90;99.90;;;;;;5072251;28;20715;-59
2022/11/17 05:07:09;;;;;;;2.37;1.10;;;9.90;99.90;;;;;;5059016;28;20576;-59
2022/11/17 05:09:36;;;;;;;2.23;1.10;;;9.90;99.90;;;;;;5072296;28;20679;-59
2022/11/17 05:14:48;;;;;;;1.73;1.10;;;9.80;99.90;;;;;;5072132;28;20206;-60
2022/11/17 05:17:14;;;;;;;3.70;1.20;;;9.80;99.90;;;;;;5071637;28;20209;-59
2022/11/17 05:19:44;;;;;;;3.07;1.20;;;9.90;99.90;;;;;;5071681;28;20204;-59
2022/11/17 05:24:56;;;;;;;3.67;1.10;;;9.80;99.90;;;;;;5072030;28;20734;-59
2022/11/17 05:27:24;;;;;;;2.07;1.00;;;9.80;99.90;;;;;;5071667;28;20212;-60
2022/11/17 05:29:50;;;;;;;4.13;1.43;;;9.80;99.90;;;;;;5072159;28;20216;-60
2022/11/17 05:32:17;;;;;;;2.40;1.10;;;9.80;99.90;;;;;;5071718;28;20212;-60
2022/11/17 05:34:45;;;;;;;2.33;1.20;;;9.70;99.90;;;;;;5072072;28;20254;-60
2022/11/17 05:37:12;;;;;;;1.47;1.23;;;9.80;99.90;;;;;;5071697;28;20204;-58
2022/11/17 05:39:38;;;;;;;2.80;1.20;;;9.80;99.90;;;;;;5071895;28;20740;-60
2022/11/17 05:42:05;;;;;;;3.63;1.27;;;9.80;99.90;;;;;;5071693;28;20258;-59
2022/11/17 05:44:32;;;;;;;3.47;1.23;;;9.90;99.90;;;;;;5071737;28;20294;-61
2022/11/17 05:46:59;;;;;;;2.80;1.30;;;9.90;99.90;;;;;;5069002;28;20224;-61
2022/11/17 05:49:25;;;;;;;3.67;1.80;;;10.00;99.90;;;;;;5071019;28;20303;-61
2022/11/17 05:51:53;;;;;;;4.60;1.50;;;10.00;99.90;;;;;;5071301;28;20561;-62
2022/11/17 05:54:20;;;;;;;3.60;1.50;;;10.00;99.90;;;;;;5071428;28;20232;-61
2022/11/17 05:56:52;;;;;;;2.60;1.50;;;10.00;99.90;;;;;;5071246;28;20216;-62
2022/11/17 05:59:25;;;;;;;4.40;1.53;;;10.00;99.90;;;;;;5071075;28;20702;-62
2022/11/17 06:01:56;;;;;;;4.17;1.70;;;9.90;99.90;;;;;;5071634;28;20635;-61
2022/11/17 06:04:23;;;;;;;6.67;2.87;;;9.90;99.90;;;;;;5070936;28;20715;-62
2022/11/17 06:06:50;;;;;;;2.67;1.50;;;9.90;99.90;;;;;;5071025;28;20221;-60
2022/11/17 06:09:19;;;;;;;4.17;1.87;;;9.90;99.90;;;;;;5070825;28;20215;-62
2022/11/17 06:11:46;;;;;;;4.03;1.63;;;9.80;99.90;;;;;;5071375;28;20630;-62
2022/11/17 06:14:12;;;;;;;3.07;1.63;;;9.80;99.90;;;;;;5070720;28;20719;-61
2022/11/17 06:16:44;;;;;;;8.40;2.03;;;9.80;99.90;;;;;;5070938;28;20667;-58
2022/11/17 06:19:16;;;;;;;2.90;1.57;;;9.80;99.90;;;;;;5071050;28;20209;-51
2022/11/17 06:21:43;;;;;;;3.97;2.30;;;9.80;99.90;;;;;;5071122;28;20201;-57
2022/11/17 06:24:09;;;;;;;2.87;1.40;;;9.80;99.90;;;;;;5070656;28;20237;-59
2022/11/17 06:26:40;;;;;;;5.20;1.70;;;9.80;99.90;;;;;;5070828;28;20719;-55
2022/11/17 06:29:09;;;;;;;2.37;1.73;;;9.80;99.90;;;;;;5070928;28;20201;-56
2022/11/17 06:31:37;;;;;;;3.20;1.80;;;9.70;99.90;;;;;;5072115;28;20213;-58
2022/11/17 06:34:04;;;;;;;2.93;2.10;;;9.80;99.90;;;;;;5074482;28;20231;-56
2022/11/17 06:36:31;;;;;;;6.97;2.30;;;9.80;99.90;;;;;;5074223;28;20200;-57
2022/11/17 06:38:58;;;;;;;3.10;1.63;;;9.80;99.90;;;;;;5074784;28;20626;-57
2022/11/17 06:41:25;;;;;;;5.43;1.73;;;9.80;99.90;;;;;;5074429;28;20188;-57
2022/11/17 06:43:53;;;;;;;6.10;2.10;;;9.80;99.90;;;;;;5074483;28;20251;-57
2022/11/17 06:46:19;;;;;;;5.33;2.00;;;9.80;99.90;;;;;;5073968;28;20590;-57
2022/11/17 06:48:46;;;;;;;4.87;2.00;;;9.80;99.90;;;;;;5074688;28;20711;-57
2022/11/17 06:51:13;;;;;;;2.93;1.83;;;9.80;99.90;;;;;;5074361;28;20278;-58
2022/11/17 06:53:39;;;;;;;4.30;1.90;;;9.80;99.90;;;;;;5060833;28;20225;-56
2022/11/17 06:56:07;;;;;;;6.03;1.90;;;9.80;99.90;;;;;;5073270;28;20389;-53
2022/11/17 06:58:36;;;;;;;5.13;2.03;;;9.80;99.90;;;;;;5073625;28;20205;-56
2022/11/17 07:01:06;;;;;;;6.13;2.07;;;9.80;99.90;;;;;;5074005;28;20205;-56
2022/11/17 07:03:34;;;;;;;3.57;1.90;;;9.80;99.90;;;;;;5073177;28;20228;-56
2022/11/17 07:06:01;;;;;;;3.30;1.93;;;9.80;99.90;;;;;;5073177;28;20225;-57
2022/11/17 07:08:29;;;;;;;5.83;2.10;;;9.80;99.90;;;;;;5073533;28;20235;-57
2022/11/17 07:10:55;;;;;;;4.77;1.70;;;9.80;99.90;;;;;;5074026;28;20204;-56
2022/11/17 07:13:24;;;;;;;3.67;2.20;;;9.80;99.90;;;;;;5073163;28;20229;-57
2022/11/17 07:15:51;;;;;;;2.70;1.70;;;9.80;99.90;;;;;;5073397;28;20204;-57
2022/11/17 07:18:20;;;;;;;3.03;1.53;;;9.80;99.90;;;;;;5073692;28;20211;-58
2022/11/17 07:20:48;;;;;;;3.00;1.53;;;9.80;99.90;;;;;;5073477;28;20645;-57
2022/11/17 07:23:15;;;;;;;2.13;1.67;;;9.80;99.90;;;;;;5073308;28;20239;-57
2022/11/17 07:25:42;;;;;;;2.77;1.27;;;9.80;99.90;;;;;;5072943;28;20216;-53
2022/11/17 07:28:08;;;;;;;3.17;1.30;;;9.80;99.90;;;;;;5073194;28;20687;-66
2022/11/17 07:30:35;;;;;;;1.70;1.10;;;9.80;99.90;;;;;;5073071;28;20215;-64
2022/11/17 07:33:03;;;;;;;3.83;1.40;;;9.90;99.90;;;;;;5073409;28;20225;-61
2022/11/17 07:35:31;;;;;;;2.63;1.10;;;9.90;99.90;;;;;;5073134;28;20205;-57
2022/11/17 07:38:00;;;;;;;2.03;1.20;;;9.80;99.90;;;;;;5073092;28;20667;-57
2022/11/17 07:40:27;;;;;;;2.40;1.27;;;9.80;99.90;;;;;;5073671;28;20274;-55
2022/11/17 07:42:53;;;;;;;2.00;0.87;;;9.80;99.90;;;;;;5072692;28;20232;-58
2022/11/17 07:45:21;;;;;;;2.03;1.20;;;9.80;99.90;;;;;;5073557;28;20217;-57
2022/11/17 07:47:54;;;;;;;2.27;1.20;;;9.90;99.90;;;;;;5073071;28;20258;-56
2022/11/17 07:50:20;;;;;;;2.23;1.30;;;9.90;99.90;;;;;;5073352;28;20236;-57
2022/11/17 07:52:49;;;;;;;3.10;1.20;;;9.90;99.90;;;;;;5072721;28;20235;-55
2022/11/17 07:55:16;;;;;;;5.70;1.07;;;9.90;99.90;;;;;;5073043;28;20213;-57
2022/11/17 07:57:42;;;;;;;5.10;1.17;;;9.90;99.90;;;;;;5072514;28;20231;-58
2022/11/17 08:00:10;;;;;;;3.27;1.33;;;10.00;99.90;;;;;;5073229;28;20216;-58
2022/11/17 08:02:37;;;;;;;5.17;1.37;;;10.00;99.90;;;;;;5072826;28;20224;-54
2022/11/17 08:05:04;;;;;;;3.43;1.00;;;9.90;99.90;;;;;;5072270;28;20219;-57
2022/11/17 08:07:31;;;;;;;3.83;1.20;;;10.00;99.90;;;;;;5072256;28;20232;-57
2022/11/17 08:09:59;;;;;;;2.83;1.40;;;10.00;99.90;;;;;;5072265;28;20205;-58
2022/11/17 08:12:26;;;;;;;2.30;1.00;;;10.00;99.90;;;;;;5072727;28;20213;-57
2022/11/17 08:14:52;;;;;;;1.77;1.07;;;10.00;99.90;;;;;;5072096;28;20209;-58
2022/11/17 08:17:19;;;;;;;2.80;0.93;;;10.00;99.90;;;;;;5072477;28;20213;-58
2022/11/17 08:19:46;;;;;;;4.23;0.93;;;10.00;99.90;;;;;;5072200;28;20256;-57
2022/11/17 08:22:12;;;;;;;3.53;1.00;;;10.00;99.90;;;;;;5072721;28;20212;-58
2022/11/17 08:24:39;;;;;;;3.43;1.20;;;10.00;99.90;;;;;;5071887;28;20236;-58
2022/11/17 08:27:07;;;;;;;2.10;0.87;;;10.00;99.90;;;;;;5071642;28;20232;-57
2022/11/17 08:29:34;;;;;;;1.87;0.90;;;10.00;99.90;;;;;;5072340;28;20201;-59
2022/11/17 08:32:00;;;;;;;6.00;1.13;;;10.00;99.90;;;;;;5071667;28;20205;-58
2022/11/17 08:34:27;;;;;;;4.40;1.57;;;9.90;99.90;;;;;;5071855;28;20290;-58
2022/11/17 08:36:53;;;;;;;4.20;1.13;;;9.90;99.90;;;;;;5071222;28;20197;-57
2022/11/17 08:39:20;;;;;;;2.93;1.00;;;9.90;99.90;;;;;;5072011;28;20262;-57
2022/11/17 08:41:47;;;;;;;4.77;1.20;;;9.90;99.90;;;;;;5072177;28;20208;-57
2022/11/17 08:44:15;;;;;;;4.93;1.07;;;9.90;99.90;;;;;;5071121;28;20237;-57
2022/11/17 08:46:41;;;;;;;2.20;1.10;;;9.90;99.90;;;;;;5071646;28;20225;-57
2022/11/17 08:49:08;;;;;;;2.77;1.20;;;10.00;99.90;;;;;;5071538;28;20205;-57
2022/11/17 08:51:35;;;;;;;2.27;1.23;;;9.90;99.90;;;;;;5071655;28;20209;-58
2022/11/17 08:54:01;;;;;;;2.23;0.90;;;9.90;99.90;;;;;;5070686;28;20232;-57
2022/11/17 08:56:28;;;;;;;3.63;1.20;;;9.90;99.90;;;;;;5071663;28;20212;-55
2022/11/17 08:58:55;;;;;;;1.97;1.10;;;9.90;99.90;;;;;;5071198;28;20205;-57
2022/11/17 09:01:22;;;;;;;2.57;1.30;;;9.80;99.90;;;;;;5061818;28;20262;-56
2022/11/17 09:03:49;;;;;;;4.33;1.10;;;9.80;99.90;;;;;;5071422;28;20294;-56
2022/11/17 09:06:17;;;;;;;2.77;1.13;;;9.80;99.90;;;;;;5070589;28;20221;-57
2022/11/17 09:08:43;;;;;;;2.70;1.00;;;9.80;99.90;;;;;;5072120;28;20296;-56
2022/11/17 09:11:12;;;;;;;4.83;0.97;;;9.80;99.90;;;;;;5071414;28;20213;-57
2022/11/17 09:13:39;;;;;;;1.80;0.73;;;9.80;99.90;;;;;;5071392;28;20319;-56
2022/11/17 09:16:08;;;;;;;4.30;1.30;;;9.80;99.90;;;;;;5070683;28;20205;-60
2022/11/17 09:18:37;;;;;;;3.47;1.27;;;9.80;99.90;;;;;;5071288;28;20207;-58
2022/11/17 09:21:06;;;;;;;2.47;1.00;;;9.90;99.90;;;;;;5071029;28;20228;-59
2022/11/17 09:23:33;;;;;;;7.10;1.20;;;9.90;99.90;;;;;;5071422;28;20231;-57
2022/11/17 09:26:04;;;;;;;1.63;1.10;;;9.90;99.90;;;;;;5071119;28;20645;-57
2022/11/17 09:28:32;;;;;;;3.23;1.00;;;10.00;99.90;;;;;;5070932;28;20257;-56
2022/11/17 09:30:59;;;;;;;2.23;1.10;;;10.00;99.90;;;;;;5071214;28;20244;-56
2022/11/17 09:33:26;;;;;;;1.37;0.90;;;10.00;99.90;;;;;;5070430;28;20225;-58
2022/11/17 09:35:56;;;;;;;1.90;1.10;;;10.10;99.90;;;;;;5070946;28;20208;-58
2022/11/17 09:38:24;;;;;;;2.90;0.97;;;10.10;99.90;;;;;;5071080;28;20212;-59
2022/11/17 09:40:53;;;;;;;4.67;1.17;;;10.10;99.90;;;;;;5071428;28;20205;-59
2022/11/17 09:43:26;;;;;;;3.53;1.10;;;10.20;99.90;;;;;;5070488;28;20680;-59
2022/11/17 09:45:58;;;;;;;2.00;1.10;;;10.30;99.90;;;;;;5070525;28;20216;-60
2022/11/17 09:48:34;;;;;;;1.37;0.90;;;10.30;99.90;;;;;;5071334;28;20259;-58
2022/11/17 09:51:07;;;;;;;2.27;0.97;;;10.40;99.90;;;;;;5070882;28;20299;-58
2022/11/17 09:53:42;;;;;;;4.07;0.90;;;10.50;99.90;;;;;;5070665;28;20766;-59
2022/11/17 09:56:11;;;;;;;3.27;1.10;;;10.50;99.90;;;;;;5070455;28;20579;-58
2022/11/17 09:58:44;;;;;;;1.37;0.67;;;10.40;99.90;;;;;;5071158;28;20300;-55
2022/11/17 10:01:12;;;;;;;3.63;1.10;;;10.50;99.90;;;;;;5064429;28;20688;-57
2022/11/17 10:03:40;;;;;;;3.47;0.97;;;10.50;99.90;;;;;;5065958;28;20601;-58
2022/11/17 10:06:13;;;;;;;1.73;0.80;;;10.50;99.90;;;;;;5070767;28;20211;-54
2022/11/17 10:08:45;;;;;;;2.57;0.80;;;10.60;99.90;;;;;;5074732;28;20206;-51
2022/11/17 10:11:32;;;;;;;1.37;0.87;;;10.60;99.90;;;;;;5074852;28;20206;-52
2022/11/17 10:14:02;;;;;;;2.23;0.80;;;10.60;99.90;;;;;;5074561;28;20228;-48
2022/11/17 10:16:29;;;;;;;1.87;0.80;;;10.70;99.90;;;;;;5074268;28;20288;-50
2022/11/17 10:18:57;;;;;;;1.03;0.70;;;10.70;99.90;;;;;;5074548;28;20210;-57
2022/11/17 10:21:29;;;;;;;2.57;0.80;;;10.70;99.90;;;;;;5074711;28;20209;-53
2022/11/17 10:23:58;;;;;;;3.60;0.70;;;10.70;99.90;;;;;;5074029;28;20345;-52
2022/11/17 10:26:26;;;;;;;5.83;1.00;;;10.70;99.90;;;;;;5074397;28;20209;-53
2022/11/17 10:29:06;;;;;;;5.30;1.00;;;10.80;99.90;;;;;;5073922;28;20243;-51
2022/11/17 10:31:41;;;;;;;3.17;0.80;;;10.80;99.90;;;;;;5074388;28;20208;-56
2022/11/17 10:34:10;;;;;;;2.97;1.20;;;10.80;99.90;;;;;;5073803;28;20297;-54
2022/11/17 10:36:46;;;;;;;2.80;0.80;;;10.80;99.90;;;;;;5074243;28;20292;-53
2022/11/17 10:39:37;;;;;;;1.27;0.77;;;10.80;99.90;;;;;;5074183;28;20286;-57
2022/11/17 10:42:18;;;;;;;1.47;0.70;;;10.80;99.90;;;;;;5074100;28;20209;-53
2022/11/17 10:44:50;;;;;;;1.40;0.83;;;10.80;99.90;;;;;;5073518;28;20273;-57
2022/11/17 10:47:27;;;;;;;3.13;0.90;;;10.90;99.90;;;;;;5074286;28;20225;-49
2022/11/17 10:50:14;;;;;;;3.17;0.80;;;10.90;99.90;;;;;;5073767;28;20212;-54
2022/11/17 10:52:42;;;;;;;1.90;0.80;;;10.90;99.90;;;;;;5074344;28;20278;-57
2022/11/17 10:55:30;;;;;;;5.33;0.73;;;10.90;99.90;;;;;;5074070;28;20212;-55
2022/11/17 10:58:01;;;;;;;1.40;0.80;;;10.90;99.90;;;;;;5073821;28;20205;-52
2022/11/17 11:00:31;;;;;;;2.23;0.93;;;10.90;99.90;;;;;;5074326;28;20205;-52
2022/11/17 11:03:16;;;;;;;2.97;0.60;;;11.00;99.90;;;;;;5073556;28;20899;-51
2022/11/17 11:06:00;;;;;;;2.33;0.80;;;11.00;99.90;;;;;;5073867;28;20284;-52
2022/11/17 11:08:34;;;;;;;1.57;0.70;;;11.00;99.90;;;;;;5073545;28;20229;-55
2022/11/17 11:11:07;;;;;;;0.77;0.70;;;11.00;99.90;;;;;;5073653;28;20711;-56
2022/11/17 11:13:39;;;;;;;2.50;0.70;;;11.00;99.90;;;;;;5073407;28;20901;-55
2022/11/17 11:16:09;;;;;;;1.23;0.73;;;11.00;99.90;;;;;;5073504;28;20201;-61
2022/11/17 11:18:36;;;;;;;2.20;0.90;;;11.00;99.90;;;;;;5072794;28;20228;-59
2022/11/17 11:21:10;;;;;;;0.60;0.60;;;11.10;99.90;;;;;;5073372;28;20640;-59
2022/11/17 11:23:47;;;;;;;0.57;0.40;;;11.10;99.90;;;;;;5072862;28;20316;-57
2022/11/17 11:26:29;;;;;;;2.30;0.57;;;11.20;99.90;;;;;;5073159;28;20778;-57
2022/11/17 11:29:05;;;;;;;1.57;0.67;;;11.20;99.90;;;;;;5072553;28;20241;-53
2022/11/17 11:31:41;;;;;;;3.50;0.73;;;11.20;99.90;;;;;;5073606;28;20201;-56
2022/11/17 11:34:23;;;;;;;2.13;0.83;;;11.20;97.30;;;;;;5072697;28;20603;-55
2022/11/17 11:36:55;;;;;;;2.27;0.40;;;11.10;99.90;;;;;;5072893;28;20303;-57
2022/11/17 11:39:38;;;;;;;1.23;0.63;;;11.20;99.90;;;;;;5068500;28;20266;-58
2022/11/17 11:42:19;;;;;;;1.23;0.60;;;11.10;99.90;;;;;;5072576;28;20669;-56
2022/11/17 11:45:06;;;;;;;2.57;0.70;;;11.20;99.90;;;;;;5073003;28;20225;-58
2022/11/17 11:47:50;;;;;;;0.90;0.70;;;11.20;99.90;;;;;;5072307;28;20705;-57
2022/11/17 11:50:21;;;;;;;3.77;0.87;;;11.40;99.90;;;;;;5073076;28;20209;-56
2022/11/17 11:52:54;;;;;;;2.60;0.80;;;11.40;99.90;;;;;;5072403;28;20898;-57
2022/11/17 11:55:27;;;;;;;3.13;0.77;;;11.40;99.90;;;;;;5072878;28;20679;-57
2022/11/17 11:58:02;;;;;;;3.47;0.70;;;11.40;99.90;;;;;;5072174;28;20200;-62
2022/11/17 12:00:29;;;;;;;1.77;0.60;;;11.40;99.90;;;;;;5072882;28;20213;-63
2022/11/17 12:03:02;;;;;;;0.80;0.60;;;11.40;92.90;;;;;;5072686;28;20236;-64
2022/11/17 12:05:34;;;;;;;1.30;0.67;;;11.30;92.80;;;;;;5071739;28;20211;-63
2022/11/17 12:08:07;;;;;;;2.40;0.60;;;11.30;94.40;;;;;;5071978;28;20626;-56
2022/11/17 12:10:41;;;;;;;2.53;0.63;;;11.20;64.80;;;;;;5072309;28;20264;-58
2022/11/17 12:13:13;;;;;;;0.60;0.53;;;11.10;84.70;;;;;;5072515;28;20232;-52
2022/11/17 12:15:39;;;;;;;2.67;0.60;;;11.20;51.20;;;;;;5071485;28;20588;-58
2022/11/17 12:18:13;;;;;;;2.97;0.70;;;11.10;60.50;;;;;;5072084;28;20201;-57
2022/11/17 12:20:58;;;;;;;2.43;0.93;;;11.10;87.10;;;;;;5071868;28;20212;-57
2022/11/17 12:23:46;;;;;;;1.13;0.60;;;11.10;97.80;;;;;;5072257;28;20225;-55
2022/11/17 12:26:24;;;;;;;1.93;0.80;;;11.10;92.60;;;;;;5071353;28;20311;-56
2022/11/17 12:29:23;;;;;;;1.33;0.60;;;11.20;95.60;;;;;;5071585;28;20220;-56
2022/11/17 12:31:51;;;;;;;2.83;0.70;;;11.20;68.00;;;;;;5071771;28;20207;-56
2022/11/17 12:34:23;;;;;;;1.20;0.70;;;11.20;98.40;;;;;;5071712;28;20230;-56
2022/11/17 12:37:25;;;;;;;1.63;0.50;;;11.30;99.90;;;;;;5071615;28;20212;-56
2022/11/17 12:40:03;;;;;;;0.90;0.57;;;11.30;58.90;;;;;;5009628;28;20207;-56
2022/11/17 12:42:32;;;;;;;1.43;0.67;;;11.30;94.40;;;;;;5064136;28;20202;-53
2022/11/17 12:45:07;;;;;;;2.73;0.70;;;11.30;68.20;;;;;;5071141;28;20423;-57
2022/11/17 12:47:36;;;;;;;1.73;0.70;;;11.30;62.50;;;;;;5071744;28;20228;-56
2022/11/17 12:50:36;;;;;;;4.67;1.40;;;11.30;90.60;;;;;;5071251;28;20282;-57
2022/11/17 12:53:30;;;;;;;2.70;1.10;;;11.30;92.90;;;;;;5071868;28;20224;-58
2022/11/17 12:56:16;;;;;;;3.23;0.70;;;11.30;55.10;;;;;;5071115;28;20212;-58
2022/11/17 12:59:00;;;;;;;0.70;0.50;;;11.20;55.20;;;;;;5071775;28;20207;-55
2022/11/17 13:01:40;;;;;;;3.70;0.70;;;11.10;72.40;;;;;;5071156;28;20614;-56
2022/11/17 13:04:11;;;;;;;1.50;0.93;;;11.10;72.00;;;;;;5071460;28;20225;-58
2022/11/17 13:06:38;;;;;;;1.83;0.93;;;11.10;82.70;;;;;;5070911;28;20304;-61
2022/11/17 13:09:07;;;;;;;1.10;0.60;;;11.00;95.90;;;;;;5071718;28;20232;-61
2022/11/17 13:11:34;;;;;;;0.97;0.60;;;11.00;92.00;;;;;;5070869;28;20202;-65
2022/11/17 13:14:10;;;;;;;2.10;0.70;;;11.00;77.70;;;;;;5068197;28;20224;-63
2022/11/17 13:16:42;;;;;;;1.60;0.70;;;10.90;99.90;;;;;;5071187;28;20580;-60
2022/11/17 13:19:30;;;;;;;1.67;0.77;;;10.90;99.90;;;;;;5070349;28;20198;-59
2022/11/17 13:21:59;;;;;;;2.90;0.70;;;10.80;99.90;;;;;;5070792;28;20691;-58
2022/11/17 13:24:31;;;;;;;2.10;0.70;;;10.70;99.90;;;;;;5070961;28;20220;-59
2022/11/17 13:26:58;;;;;;;1.50;0.77;;;10.70;99.90;;;;;;5071246;28;20258;-57
2022/11/17 13:29:26;;;;;;;4.00;1.00;;;10.70;99.90;;;;;;5071024;28;20224;-58
2022/11/17 13:32:11;;;;;;;3.03;0.83;;;10.60;99.90;;;;;;5071292;28;20213;-57
2022/11/17 13:34:46;;;;;;;2.67;0.70;;;10.60;99.90;;;;;;5070580;28;20315;-56
2022/11/17 13:37:16;;;;;;;1.83;0.80;;;10.60;99.90;;;;;;5071135;28;20208;-53
2022/11/17 13:39:54;;;;;;;2.97;0.90;;;10.50;99.90;;;;;;5070831;28;20262;-54
2022/11/17 13:42:21;;;;;;;2.83;0.90;;;10.50;99.90;;;;;;5071359;28;20208;-55
2022/11/17 13:44:50;;;;;;;1.37;0.83;;;10.50;99.90;;;;;;5070502;28;20213;-56